Time;durP1;ratioP1;P1;durP2;ratioP2;P2;SDS_P1;SDS_P2;PMS_P1;PMS_P2;Temp;Humidity;BMP_temperature;BMP_pressure;BME280_temperature;BME280_humidity;BME280_pressure;Samples;Min_cycle;Max_cycle;Signal;HPM_P1;HPM_P2
2023/03/17 00:01:04;;;;;;;29.85;20.83;;;21.70;32.00;;;;;;5055197;28;20024;-51
2023/03/17 00:03:35;;;;;;;27.80;19.83;;;21.70;32.00;;;;;;5051227;28;20323;-54
2023/03/17 00:06:03;;;;;;;30.35;20.65;;;21.70;32.00;;;;;;5079802;28;20424;-52
2023/03/17 00:08:32;;;;;;;29.17;20.58;;;21.70;32.00;;;;;;5054497;28;20028;-55
2023/03/17 00:10:58;;;;;;;26.83;18.83;;;21.70;32.00;;;;;;5054764;28;20483;-55
2023/03/17 00:13:25;;;;;;;28.55;19.02;;;21.70;32.00;;;;;;5055416;28;20062;-56
2023/03/17 00:15:57;;;;;;;27.38;18.60;;;21.70;32.00;;;;;;5055799;28;20072;-52
2023/03/17 00:18:23;;;;;;;27.60;17.90;;;21.70;31.90;;;;;;5054805;28;20021;-52
2023/03/17 00:20:49;;;;;;;27.13;18.83;;;21.70;32.00;;;;;;5055312;28;20367;-55
2023/03/17 00:23:20;;;;;;;25.10;17.80;;;21.70;32.00;;;;;;5052814;28;20074;-50
2023/03/17 00:25:47;;;;;;;22.58;16.10;;;21.70;31.90;;;;;;5054818;28;20039;-52
2023/03/17 00:28:19;;;;;;;21.40;15.60;;;21.60;31.80;;;;;;5055453;28;20034;-53
2023/03/17 00:30:51;;;;;;;21.77;15.83;;;21.70;31.90;;;;;;5052571;28;20044;-54
2023/03/17 00:33:36;;;;;;;21.42;14.32;;;21.60;31.80;;;;;;5053211;28;20294;-52
2023/03/17 00:36:02;;;;;;;23.00;15.10;;;21.60;31.70;;;;;;5054698;28;20021;-52
2023/03/17 00:38:28;;;;;;;19.85;13.80;;;21.60;31.70;;;;;;5055354;28;20522;-55
2023/03/17 00:40:57;;;;;;;19.55;13.85;;;21.60;31.70;;;;;;5053405;28;20403;-57
2023/03/17 00:43:22;;;;;;;20.10;14.18;;;21.60;31.80;;;;;;5053629;28;20021;-58
2023/03/17 00:45:49;;;;;;;19.30;13.02;;;21.60;31.80;;;;;;5054079;28;20360;-58
2023/03/17 00:48:19;;;;;;;17.83;12.75;;;21.60;31.80;;;;;;5054576;28;20051;-59
2023/03/17 00:50:47;;;;;;;17.27;12.27;;;21.60;31.80;;;;;;5054026;28;20017;-57
2023/03/17 00:53:16;;;;;;;18.80;12.23;;;21.60;31.80;;;;;;5054099;28;20422;-56
2023/03/17 00:55:44;;;;;;;16.75;11.75;;;21.60;31.70;;;;;;5054166;28;20349;-57
2023/03/17 00:58:27;;;;;;;15.98;11.50;;;21.60;31.80;;;;;;5054487;28;20036;-57
2023/03/17 01:00:54;;;;;;;15.73;11.95;;;21.60;31.70;;;;;;5052419;28;20025;-59
2023/03/17 01:03:21;;;;;;;17.05;11.63;;;21.60;31.70;;;;;;5055886;28;20029;-56
2023/03/17 01:05:49;;;;;;;16.15;11.07;;;21.60;31.70;;;;;;5053622;28;20021;-55
2023/03/17 01:08:16;;;;;;;16.30;11.00;;;21.60;31.70;;;;;;5049572;28;20084;-56
2023/03/17 01:10:43;;;;;;;15.07;10.50;;;21.50;31.60;;;;;;5053811;28;20037;-58
2023/03/17 01:13:12;;;;;;;13.57;9.95;;;21.50;31.60;;;;;;5055754;28;20029;-58
2023/03/17 01:15:50;;;;;;;13.20;9.35;;;21.50;31.50;;;;;;5053473;28;20382;-59
2023/03/17 01:18:21;;;;;;;14.70;10.68;;;21.60;31.60;;;;;;5051852;28;20047;-58
2023/03/17 01:20:47;;;;;;;14.77;10.05;;;21.50;31.50;;;;;;5055422;28;20475;-59
2023/03/17 01:23:13;;;;;;;13.40;9.40;;;21.50;31.60;;;;;;5054422;28;20033;-59
2023/03/17 01:25:41;;;;;;;13.45;9.05;;;21.50;31.50;;;;;;5053284;28;20029;-59
2023/03/17 01:28:13;;;;;;;12.32;8.65;;;21.50;31.50;;;;;;5053636;28;20029;-55
2023/03/17 01:30:39;;;;;;;12.27;8.57;;;21.50;31.50;;;;;;5053199;28;20033;-57
2023/03/17 01:33:08;;;;;;;11.35;7.90;;;21.50;31.50;;;;;;5052090;28;20048;-59
2023/03/17 01:35:35;;;;;;;12.85;8.70;;;21.50;31.50;;;;;;5052521;28;20071;-59
2023/03/17 01:38:02;;;;;;;14.73;8.63;;;21.50;31.50;;;;;;5053664;28;20037;-58
2023/03/17 01:40:32;;;;;;;11.98;8.10;;;21.50;31.60;;;;;;5053720;28;20035;-61
2023/03/17 01:43:07;;;;;;;10.60;7.65;;;21.50;31.60;;;;;;5053015;28;20470;-58
2023/03/17 01:46:13;;;;;;;10.65;8.13;;;21.50;31.60;;;;;;5054054;28;20110;-58
2023/03/17 01:48:44;;;;;;;11.00;7.45;;;21.50;31.50;;;;;;5049737;28;20033;-59
2023/03/17 01:51:16;;;;;;;9.68;7.00;;;21.50;31.50;;;;;;5051566;28;20037;-56
2023/03/17 01:53:44;;;;;;;10.93;7.03;;;21.50;31.50;;;;;;5050656;28;20035;-57
2023/03/17 01:56:11;;;;;;;10.20;6.93;;;21.40;31.50;;;;;;5053447;28;20356;-56
2023/03/17 01:58:38;;;;;;;8.85;6.43;;;21.40;31.40;;;;;;5034693;28;20060;-58
2023/03/17 02:01:06;;;;;;;8.90;6.43;;;21.40;31.40;;;;;;5052765;28;20025;-56
2023/03/17 02:03:33;;;;;;;9.25;6.05;;;21.40;31.40;;;;;;5050100;28;20109;-60
2023/03/17 02:06:00;;;;;;;9.63;6.32;;;21.40;31.40;;;;;;5051073;28;20032;-57
2023/03/17 02:08:26;;;;;;;9.52;6.20;;;21.40;32.10;;;;;;5052401;28;20107;-59
2023/03/17 02:10:56;;;;;;;8.75;5.95;;;21.40;31.40;;;;;;5052484;28;20060;-58
2023/03/17 02:13:22;;;;;;;9.02;6.75;;;21.40;31.40;;;;;;5053603;28;20044;-59
2023/03/17 02:15:53;;;;;;;7.50;5.30;;;21.40;31.40;;;;;;5053212;28;20053;-57
2023/03/17 02:18:21;;;;;;;9.30;5.93;;;21.40;31.40;;;;;;5033843;28;20029;-58
2023/03/17 02:20:47;;;;;;;7.53;5.63;;;21.40;31.40;;;;;;5051907;28;20074;-58
2023/03/17 02:23:18;;;;;;;7.88;5.75;;;21.40;31.40;;;;;;5052093;28;20044;-61
2023/03/17 02:25:46;;;;;;;8.80;5.78;;;21.40;31.40;;;;;;5051722;28;20108;-57
2023/03/17 02:28:23;;;;;;;8.10;5.68;;;21.40;31.40;;;;;;5053141;28;20581;-55
2023/03/17 02:30:49;;;;;;;8.38;5.50;;;21.40;31.40;;;;;;5049605;28;20180;-58
2023/03/17 02:33:16;;;;;;;7.45;5.25;;;21.40;31.40;;;;;;5051388;28;20045;-58
2023/03/17 02:35:42;;;;;;;7.50;4.95;;;21.40;31.40;;;;;;5052582;28;20372;-59
2023/03/17 02:38:08;;;;;;;5.72;4.32;;;21.30;31.30;;;;;;5041812;28;20040;-57
2023/03/17 02:40:34;;;;;;;6.15;4.47;;;21.30;31.30;;;;;;5042177;28;20057;-59
2023/03/17 02:43:01;;;;;;;6.55;4.60;;;21.30;31.90;;;;;;5052384;28;20025;-58
2023/03/17 02:45:27;;;;;;;6.72;4.82;;;21.40;31.40;;;;;;5052258;28;20025;-57
2023/03/17 02:47:54;;;;;;;5.90;4.50;;;21.30;31.30;;;;;;5051488;28;20040;-58
2023/03/17 02:50:23;;;;;;;7.05;4.57;;;21.30;31.30;;;;;;5052391;28;20021;-57
2023/03/17 02:52:50;;;;;;;5.85;4.40;;;21.30;31.30;;;;;;5050371;28;20037;-58
2023/03/17 02:55:18;;;;;;;5.53;4.18;;;21.30;31.30;;;;;;5052275;28;21615;-57
2023/03/17 02:57:44;;;;;;;6.65;4.43;;;21.30;31.30;;;;;;5051653;28;20029;-57
2023/03/17 03:00:10;;;;;;;5.72;3.95;;;21.30;31.30;;;;;;5051694;28;20036;-57
2023/03/17 03:02:40;;;;;;;5.47;3.85;;;21.30;31.30;;;;;;5053080;28;20021;-57
2023/03/17 03:05:07;;;;;;;6.18;4.18;;;21.30;31.30;;;;;;5053491;28;20039;-58
2023/03/17 03:07:34;;;;;;;5.97;4.07;;;21.20;31.30;;;;;;5055022;28;20037;-57
2023/03/17 03:10:01;;;;;;;5.63;3.70;;;21.30;31.30;;;;;;5056255;28;20032;-57
2023/03/17 03:12:27;;;;;;;4.63;3.40;;;21.30;31.30;;;;;;5055969;28;20036;-57
2023/03/17 03:14:53;;;;;;;6.50;3.83;;;21.30;31.30;;;;;;5056624;28;20040;-58
2023/03/17 03:17:20;;;;;;;5.88;3.65;;;21.20;31.20;;;;;;5053532;28;20021;-57
2023/03/17 03:19:47;;;;;;;4.88;3.45;;;21.20;31.20;;;;;;5056283;28;20036;-58
2023/03/17 03:22:13;;;;;;;5.25;3.47;;;21.20;31.20;;;;;;5057038;28;20039;-58
2023/03/17 03:24:39;;;;;;;3.92;2.90;;;21.20;31.20;;;;;;5056355;28;20111;-57
2023/03/17 03:27:05;;;;;;;4.85;3.10;;;21.20;31.20;;;;;;5055896;28;20041;-57
2023/03/17 03:29:31;;;;;;;4.13;2.75;;;21.20;31.20;;;;;;5055615;28;20372;-58
2023/03/17 03:31:57;;;;;;;6.45;3.80;;;21.20;31.20;;;;;;5054643;28;20033;-58
2023/03/17 03:34:23;;;;;;;5.43;3.63;;;21.20;31.30;;;;;;5056826;28;20025;-59
2023/03/17 03:36:49;;;;;;;4.40;3.22;;;21.20;31.30;;;;;;5055532;28;20025;-59
2023/03/17 03:39:15;;;;;;;5.00;3.00;;;21.20;31.30;;;;;;5054858;28;20032;-55
2023/03/17 03:41:41;;;;;;;5.13;2.92;;;21.20;31.30;;;;;;5056280;28;20433;-58
2023/03/17 03:44:07;;;;;;;5.35;2.97;;;21.20;31.30;;;;;;5053546;28;20032;-58
2023/03/17 03:46:32;;;;;;;5.38;2.80;;;21.20;31.30;;;;;;5054958;28;20108;-56
2023/03/17 03:48:58;;;;;;;4.32;3.22;;;21.20;31.30;;;;;;5056019;28;20021;-58
2023/03/17 03:51:24;;;;;;;4.10;2.75;;;21.20;31.30;;;;;;5055597;28;20190;-57
2023/03/17 03:53:50;;;;;;;4.47;2.80;;;21.20;31.20;;;;;;5055845;28;20044;-58
2023/03/17 03:56:16;;;;;;;4.30;2.50;;;21.20;31.20;;;;;;5054847;28;20032;-57
2023/03/17 03:58:42;;;;;;;5.72;3.05;;;21.20;31.20;;;;;;5055215;28;20036;-59
2023/03/17 04:01:08;;;;;;;4.80;2.75;;;21.10;31.10;;;;;;5055981;28;20086;-57
2023/03/17 04:03:37;;;;;;;3.90;2.83;;;21.20;31.20;;;;;;5055511;28;20510;-58
2023/03/17 04:06:03;;;;;;;3.97;2.63;;;21.20;31.20;;;;;;5053112;28;20033;-58
2023/03/17 04:08:30;;;;;;;2.80;2.10;;;21.10;31.10;;;;;;5054910;28;20467;-58
2023/03/17 04:10:57;;;;;;;3.38;2.40;;;21.10;31.10;;;;;;5038504;28;20037;-57
2023/03/17 04:13:23;;;;;;;3.55;2.33;;;21.10;31.10;;;;;;5055816;28;20043;-59
2023/03/17 04:15:49;;;;;;;4.13;2.50;;;21.10;31.10;;;;;;5054142;28;20364;-57
2023/03/17 04:18:15;;;;;;;3.50;1.83;;;21.10;31.10;;;;;;5055882;28;20047;-57
2023/03/17 04:20:41;;;;;;;2.90;1.98;;;21.10;31.10;;;;;;5055530;28;20124;-59
2023/03/17 04:23:07;;;;;;;3.55;2.20;;;21.10;31.10;;;;;;5052909;28;20108;-60
2023/03/17 04:25:33;;;;;;;4.70;2.13;;;21.10;31.10;;;;;;5055008;28;20025;-55
2023/03/17 04:27:59;;;;;;;2.97;1.98;;;21.10;31.10;;;;;;5055338;28;20021;-56
2023/03/17 04:30:25;;;;;;;2.47;1.85;;;21.10;31.10;;;;;;5055168;28;20040;-59
2023/03/17 04:32:51;;;;;;;2.85;2.00;;;21.10;31.10;;;;;;5051657;28;20036;-58
2023/03/17 04:35:20;;;;;;;2.78;1.90;;;21.10;31.10;;;;;;5054988;28;20052;-58
2023/03/17 04:37:47;;;;;;;2.92;2.05;;;21.10;31.10;;;;;;5055276;28;20025;-56
2023/03/17 04:40:15;;;;;;;3.20;1.90;;;21.10;31.70;;;;;;5054269;28;20033;-58
2023/03/17 04:42:41;;;;;;;2.58;1.80;;;21.10;31.00;;;;;;5049234;28;20100;-58
2023/03/17 04:45:10;;;;;;;2.13;1.58;;;21.00;31.00;;;;;;5055489;28;20064;-54
2023/03/17 04:47:36;;;;;;;3.28;2.03;;;21.00;31.00;;;;;;5055229;28;20046;-56
2023/03/17 04:50:02;;;;;;;2.40;1.52;;;21.00;31.70;;;;;;5052081;28;20036;-58
2023/03/17 04:52:28;;;;;;;2.88;1.58;;;21.10;31.00;;;;;;5054342;28;20033;-56
2023/03/17 04:54:54;;;;;;;1.85;1.60;;;21.00;31.00;;;;;;5055125;28;20040;-54
2023/03/17 04:57:21;;;;;;;2.95;1.70;;;21.00;31.00;;;;;;5053956;28;20034;-58
2023/03/17 04:59:47;;;;;;;1.77;1.38;;;21.00;31.00;;;;;;5054451;28;20039;-57
2023/03/17 05:02:12;;;;;;;2.58;1.80;;;21.00;31.00;;;;;;5053017;28;20597;-56
2023/03/17 05:04:38;;;;;;;2.83;1.70;;;21.00;31.00;;;;;;5055292;28;20039;-56
2023/03/17 05:07:04;;;;;;;2.78;1.80;;;21.00;31.00;;;;;;5051946;28;20045;-58
2023/03/17 05:09:31;;;;;;;2.53;1.65;;;21.00;31.00;;;;;;5053635;28;20021;-58
2023/03/17 05:11:57;;;;;;;2.13;1.30;;;21.00;31.00;;;;;;5053478;28;20094;-58
2023/03/17 05:14:22;;;;;;;2.30;1.40;;;21.00;31.00;;;;;;5054604;28;20024;-59
2023/03/17 05:16:49;;;;;;;2.03;1.30;;;21.00;31.00;;;;;;5054122;28;20386;-56
2023/03/17 05:19:16;;;;;;;2.78;1.60;;;21.00;31.00;;;;;;5053448;28;20025;-58
2023/03/17 05:21:42;;;;;;;2.63;1.50;;;21.00;31.00;;;;;;5053161;28;20500;-59
2023/03/17 05:24:08;;;;;;;2.50;1.83;;;21.00;31.00;;;;;;5055814;28;20116;-55
2023/03/17 05:26:35;;;;;;;2.15;1.30;;;21.00;31.00;;;;;;5054468;28;20063;-58
2023/03/17 05:29:01;;;;;;;2.95;1.60;;;21.00;31.00;;;;;;5052913;28;20029;-58
2023/03/17 05:31:27;;;;;;;2.63;1.52;;;21.00;31.00;;;;;;5054579;28;20033;-58
2023/03/17 05:33:52;;;;;;;4.05;1.67;;;21.00;31.00;;;;;;5051538;28;20043;-57
2023/03/17 05:36:20;;;;;;;1.70;1.42;;;21.00;31.00;;;;;;5050223;28;20045;-56
2023/03/17 05:38:45;;;;;;;2.40;1.27;;;21.00;31.00;;;;;;5053195;28;20055;-57
2023/03/17 05:41:11;;;;;;;1.85;1.30;;;20.90;30.90;;;;;;5053953;28;20056;-56
2023/03/17 05:43:37;;;;;;;2.03;1.48;;;20.90;30.90;;;;;;5052858;28;20044;-57
2023/03/17 05:46:04;;;;;;;1.65;1.17;;;21.00;31.00;;;;;;5053868;28;20028;-56
2023/03/17 05:48:31;;;;;;;1.83;1.20;;;20.90;30.90;;;;;;5052821;28;20021;-59
2023/03/17 05:50:57;;;;;;;2.05;1.30;;;20.90;30.90;;;;;;5052431;28;20020;-59
2023/03/17 05:53:23;;;;;;;2.28;1.48;;;20.90;31.00;;;;;;5052612;28;20796;-58
2023/03/17 05:55:51;;;;;;;1.98;1.30;;;20.90;31.20;;;;;;5043728;28;20033;-58
2023/03/17 05:58:17;;;;;;;1.08;0.93;;;20.90;31.10;;;;;;5042360;28;20117;-56
2023/03/17 06:00:43;;;;;;;2.10;1.20;;;20.90;31.10;;;;;;5050187;28;20175;-57
2023/03/17 06:03:09;;;;;;;2.08;1.30;;;20.90;31.10;;;;;;5053022;28;20025;-58
2023/03/17 06:05:36;;;;;;;2.10;1.27;;;20.90;31.10;;;;;;5051643;28;20118;-59
2023/03/17 06:08:03;;;;;;;2.45;1.52;;;20.90;31.10;;;;;;5052896;28;20444;-56
2023/03/17 06:10:30;;;;;;;2.85;1.40;;;20.90;31.10;;;;;;5052616;28;20057;-57
2023/03/17 06:12:55;;;;;;;1.42;1.17;;;20.90;31.20;;;;;;5053599;28;20032;-55
2023/03/17 06:15:21;;;;;;;1.73;1.20;;;20.90;31.20;;;;;;5051966;28;20053;-57
2023/03/17 06:17:47;;;;;;;2.17;1.40;;;20.90;31.30;;;;;;5051603;28;20091;-59
2023/03/17 06:20:13;;;;;;;2.20;1.20;;;20.90;31.30;;;;;;5053819;28;20033;-59
2023/03/17 06:22:39;;;;;;;2.45;1.00;;;20.90;31.30;;;;;;5053300;28;20025;-59
2023/03/17 06:25:06;;;;;;;2.03;1.02;;;20.90;31.30;;;;;;5053354;28;20052;-59
2023/03/17 06:27:31;;;;;;;1.48;1.10;;;20.90;31.30;;;;;;5051541;28;20112;-59
2023/03/17 06:29:59;;;;;;;1.55;1.33;;;20.90;31.20;;;;;;5052128;28;20128;-57
2023/03/17 06:32:25;;;;;;;1.77;1.15;;;20.90;31.20;;;;;;5050664;28;20036;-57
2023/03/17 06:34:52;;;;;;;1.80;1.10;;;20.90;31.20;;;;;;5053468;28;20104;-58
2023/03/17 06:37:19;;;;;;;1.83;1.10;;;20.90;31.20;;;;;;5051131;28;20059;-57
2023/03/17 06:39:45;;;;;;;1.60;1.00;;;20.90;31.20;;;;;;5053261;28;20037;-58
2023/03/17 06:42:10;;;;;;;2.15;1.17;;;20.90;31.10;;;;;;5051052;28;20021;-55
2023/03/17 06:44:36;;;;;;;2.13;0.90;;;20.90;31.20;;;;;;5051346;28;20475;-55
2023/03/17 06:47:03;;;;;;;2.35;1.05;;;20.90;31.10;;;;;;5053015;28;20036;-59
2023/03/17 06:49:30;;;;;;;2.25;1.30;;;20.90;31.20;;;;;;5054464;28;20067;-58
2023/03/17 06:51:56;;;;;;;1.77;1.08;;;20.90;31.10;;;;;;5053934;28;20051;-59
2023/03/17 06:54:24;;;;;;;1.95;1.20;;;20.90;31.10;;;;;;5052591;28;20100;-57
2023/03/17 06:56:52;;;;;;;2.83;1.75;;;20.90;31.10;;;;;;5052381;28;20021;-58
2023/03/17 06:59:18;;;;;;;1.67;1.20;;;20.90;31.10;;;;;;5051900;28;20033;-59
2023/03/17 07:01:45;;;;;;;1.63;1.10;;;20.80;31.10;;;;;;5048841;28;20106;-58
2023/03/17 07:04:11;;;;;;;2.00;1.02;;;20.90;31.20;;;;;;5054215;28;20087;-60
2023/03/17 07:06:38;;;;;;;2.55;1.40;;;20.90;31.20;;;;;;5050453;28;20460;-59
2023/03/17 07:09:04;;;;;;;1.73;1.20;;;20.90;31.20;;;;;;5050061;28;20037;-58
2023/03/17 07:11:31;;;;;;;1.73;1.20;;;20.80;31.10;;;;;;5052012;28;20036;-59
2023/03/17 07:13:57;;;;;;;2.58;1.23;;;20.90;31.20;;;;;;5046567;28;20151;-57
2023/03/17 07:16:23;;;;;;;1.95;1.00;;;20.80;31.10;;;;;;5046764;28;20040;-58
2023/03/17 07:18:49;;;;;;;1.88;0.95;;;20.90;31.10;;;;;;5051913;28;20036;-59
2023/03/17 07:21:16;;;;;;;1.20;1.10;;;20.90;31.10;;;;;;5050270;28;20032;-58
2023/03/17 07:23:42;;;;;;;3.05;1.15;;;20.90;31.10;;;;;;5050970;28;20463;-55
2023/03/17 07:26:08;;;;;;;1.50;0.90;;;20.90;31.20;;;;;;5052066;28;20029;-57
2023/03/17 07:28:34;;;;;;;2.10;1.08;;;20.90;31.10;;;;;;5050743;28;20094;-57
2023/03/17 07:31:01;;;;;;;2.15;1.15;;;20.90;31.20;;;;;;5045383;28;20356;-57
2023/03/17 07:33:28;;;;;;;2.53;1.25;;;20.90;31.20;;;;;;5052938;28;20029;-58
2023/03/17 07:35:54;;;;;;;1.88;1.05;;;20.90;31.20;;;;;;5032718;28;20066;-57
2023/03/17 07:38:20;;;;;;;3.55;1.55;;;20.90;31.20;;;;;;5041905;28;20075;-58
2023/03/17 07:40:47;;;;;;;2.28;1.10;;;20.80;31.20;;;;;;5052998;28;20363;-57
2023/03/17 07:43:15;;;;;;;2.40;1.25;;;20.90;31.20;;;;;;5034338;28;20102;-59
2023/03/17 07:45:42;;;;;;;1.58;1.20;;;20.90;31.30;;;;;;5047752;28;20036;-56
2023/03/17 07:48:09;;;;;;;2.88;1.20;;;20.90;31.30;;;;;;5049236;28;20029;-59
2023/03/17 07:50:36;;;;;;;2.80;1.20;;;20.90;31.30;;;;;;5053320;28;20423;-58
2023/03/17 07:53:02;;;;;;;2.08;1.10;;;20.90;32.00;;;;;;5056016;28;20464;-57
2023/03/17 07:55:29;;;;;;;3.63;1.40;;;20.90;31.30;;;;;;5053100;28;20025;-59
2023/03/17 07:57:55;;;;;;;7.82;1.55;;;20.90;31.40;;;;;;5052181;28;20037;-57
2023/03/17 08:00:22;;;;;;;2.45;1.15;;;20.90;31.40;;;;;;5053244;28;20112;-55
2023/03/17 08:02:49;;;;;;;2.22;1.30;;;20.90;31.30;;;;;;5054727;28;20025;-58
2023/03/17 08:05:16;;;;;;;3.08;1.38;;;21.00;31.40;;;;;;5054806;28;20025;-59
2023/03/17 08:07:42;;;;;;;2.38;1.25;;;21.00;31.40;;;;;;5050272;28;20523;-56
2023/03/17 08:10:11;;;;;;;2.58;1.30;;;21.00;31.30;;;;;;5055951;28;20029;-56
2023/03/17 08:12:38;;;;;;;2.35;1.17;;;21.00;31.30;;;;;;5061058;28;20360;-57
2023/03/17 08:15:05;;;;;;;2.45;1.42;;;21.00;31.30;;;;;;5075876;28;20584;-58
2023/03/17 08:17:31;;;;;;;2.67;1.25;;;21.00;31.30;;;;;;5033128;28;20068;-59
2023/03/17 08:19:57;;;;;;;3.00;1.30;;;21.00;31.30;;;;;;5056278;28;20052;-59
2023/03/17 08:22:23;;;;;;;3.53;1.42;;;21.10;31.40;;;;;;5052209;28;20025;-59
2023/03/17 08:24:49;;;;;;;3.47;1.75;;;21.10;31.40;;;;;;5054619;28;20029;-57
2023/03/17 08:27:17;;;;;;;1.83;1.23;;;21.10;31.50;;;;;;5055425;28;20098;-56
2023/03/17 08:29:44;;;;;;;1.98;1.30;;;21.10;31.60;;;;;;5055331;28;20059;-58
2023/03/17 08:32:10;;;;;;;3.22;1.40;;;21.10;31.70;;;;;;5035214;28;20047;-60
2023/03/17 08:34:36;;;;;;;2.55;1.17;;;21.10;31.60;;;;;;5057927;28;20024;-60
2023/03/17 08:37:02;;;;;;;2.25;1.33;;;21.10;31.60;;;;;;5052437;28;20029;-60
2023/03/17 08:39:28;;;;;;;2.45;1.20;;;21.10;32.20;;;;;;5055385;28;20078;-57
2023/03/17 08:41:54;;;;;;;3.08;1.40;;;21.10;31.60;;;;;;5052401;28;20087;-56
2023/03/17 08:44:20;;;;;;;2.60;1.25;;;21.10;31.60;;;;;;5051252;28;20037;-59
2023/03/17 08:46:48;;;;;;;2.17;1.27;;;21.20;32.30;;;;;;5053259;28;20029;-55
2023/03/17 08:49:16;;;;;;;1.73;1.15;;;21.20;31.70;;;;;;5052295;28;20035;-58
2023/03/17 08:51:43;;;;;;;2.85;1.17;;;21.20;31.70;;;;;;5047114;28;20321;-56
2023/03/17 08:54:10;;;;;;;2.75;1.13;;;21.20;31.70;;;;;;5044360;28;20484;-54
2023/03/17 08:56:38;;;;;;;3.10;1.38;;;21.20;31.70;;;;;;5048216;28;20349;-56
2023/03/17 08:59:09;;;;;;;2.63;1.30;;;21.20;31.70;;;;;;5044785;28;20052;-58
2023/03/17 09:01:36;;;;;;;3.05;1.40;;;21.20;31.80;;;;;;5049528;28;20094;-57
2023/03/17 09:04:02;;;;;;;3.60;1.50;;;21.20;32.00;;;;;;5041105;28;20417;-53
2023/03/17 09:06:29;;;;;;;4.78;1.52;;;21.20;32.20;;;;;;5043982;28;20453;-58
2023/03/17 09:08:55;;;;;;;4.88;1.55;;;21.20;32.50;;;;;;5047503;28;20037;-57
2023/03/17 09:11:24;;;;;;;3.10;1.60;;;21.20;32.90;;;;;;5046857;28;20103;-56
2023/03/17 09:13:50;;;;;;;4.15;1.60;;;21.20;33.10;;;;;;5044515;28;20112;-64
2023/03/17 09:16:17;;;;;;;3.33;1.30;;;21.20;33.30;;;;;;5042089;28;20045;-56
2023/03/17 09:18:43;;;;;;;4.25;1.42;;;21.20;33.30;;;;;;5046272;28;20045;-60
2023/03/17 09:21:12;;;;;;;2.55;1.40;;;21.20;33.40;;;;;;5038267;28;20029;-60
2023/03/17 09:23:38;;;;;;;3.40;1.58;;;21.30;33.60;;;;;;5034083;28;20098;-61
2023/03/17 09:26:04;;;;;;;2.28;1.40;;;21.20;33.60;;;;;;5039916;28;20044;-58
2023/03/17 09:28:29;;;;;;;3.30;1.50;;;21.30;33.80;;;;;;5045763;28;20437;-57
2023/03/17 09:31:04;;;;;;;2.55;1.38;;;21.30;33.80;;;;;;5049775;28;20036;-57
2023/03/17 09:33:30;;;;;;;4.57;2.03;;;21.30;33.60;;;;;;5033934;28;20053;-56
2023/03/17 09:35:57;;;;;;;5.78;1.35;;;21.30;33.60;;;;;;5048876;28;20040;-57
2023/03/17 09:38:24;;;;;;;3.08;1.50;;;21.30;33.60;;;;;;5055195;28;20036;-57
2023/03/17 09:41:20;;;;;;;3.33;1.45;;;21.30;33.60;;;;;;5054391;28;20021;-57
2023/03/17 09:43:51;;;;;;;2.72;1.00;;;21.30;33.60;;;;;;5035830;28;20033;-57
2023/03/17 09:46:41;;;;;;;3.13;1.30;;;21.30;33.40;;;;;;5053694;28;20364;-57
2023/03/17 09:49:13;;;;;;;3.20;1.33;;;21.30;33.40;;;;;;5052812;28;20102;-56
2023/03/17 09:51:39;;;;;;;2.85;1.25;;;21.30;33.30;;;;;;5053906;28;20800;-57
2023/03/17 09:54:33;;;;;;;2.35;1.20;;;21.30;33.20;;;;;;5052681;28;20056;-53
2023/03/17 09:57:11;;;;;;;2.45;1.20;;;21.30;33.20;;;;;;5052501;28;20094;-57
2023/03/17 09:59:45;;;;;;;1.95;1.02;;;21.30;33.20;;;;;;5052686;28;20056;-58
2023/03/17 10:02:23;;;;;;;;;;;21.30;33.10;;;;;;5054009;28;20025;-56
2023/03/17 10:04:49;;;;;;;2.17;1.17;;;21.30;33.10;;;;;;5052504;28;20252;-56
2023/03/17 10:07:23;;;;;;;2.85;1.20;;;21.30;33.10;;;;;;5053943;28;20021;-57
2023/03/17 10:10:30;;;;;;;2.53;1.33;;;21.30;33.10;;;;;;5052022;28;20112;-58
2023/03/17 10:13:33;;;;;;;1.92;1.05;;;21.20;33.00;;;;;;5050795;28;20055;-57
2023/03/17 10:16:05;;;;;;;1.95;1.00;;;21.20;33.60;;;;;;5053032;28;20064;-57
2023/03/17 10:18:42;;;;;;;1.75;1.00;;;21.30;33.00;;;;;;5052543;28;20083;-57
2023/03/17 10:21:13;;;;;;;3.38;1.15;;;21.20;32.90;;;;;;5052197;28;20033;-56
2023/03/17 10:23:40;;;;;;;2.25;0.93;;;21.30;33.00;;;;;;5052754;28;20043;-58
2023/03/17 10:26:15;;;;;;;2.15;1.10;;;21.30;33.00;;;;;;5052969;28;20059;-56
2023/03/17 10:28:41;;;;;;;2.78;1.00;;;21.30;33.00;;;;;;5052967;28;20052;-50
2023/03/17 10:31:16;;;;;;;1.83;1.20;;;21.30;32.90;;;;;;5051369;28;20021;-57
2023/03/17 10:33:45;;;;;;;2.60;1.05;;;21.30;32.90;;;;;;5049604;28;20029;-58
2023/03/17 10:36:15;;;;;;;1.52;1.00;;;21.30;33.10;;;;;;5051636;28;20478;-58
2023/03/17 10:38:51;;;;;;;1.85;1.00;;;21.30;33.10;;;;;;5052974;28;20067;-61
2023/03/17 10:41:18;;;;;;;1.48;0.95;;;21.30;33.20;;;;;;5046323;28;20391;-58
2023/03/17 10:43:47;;;;;;;2.97;1.20;;;21.30;33.20;;;;;;5051052;28;20108;-55
2023/03/17 10:46:23;;;;;;;2.40;1.20;;;21.30;33.50;;;;;;5054457;28;20025;-56
2023/03/17 10:49:15;;;;;;;1.77;1.05;;;21.30;33.70;;;;;;5054514;28;20029;-51
2023/03/17 10:51:45;;;;;;;1.73;0.93;;;21.40;33.90;;;;;;5050706;28;20037;-59
2023/03/17 10:54:17;;;;;;;2.78;1.02;;;21.40;34.10;;;;;;5053392;28;20420;-57
2023/03/17 10:56:47;;;;;;;3.83;1.40;;;21.40;34.30;;;;;;5047254;28;20083;-60
2023/03/17 10:59:40;;;;;;;3.28;1.00;;;21.40;34.40;;;;;;5046890;28;20036;-61
2023/03/17 11:02:20;;;;;;;2.47;1.00;;;21.40;34.50;;;;;;5045363;28;20045;-57
2023/03/17 11:05:06;;;;;;;2.30;1.08;;;21.40;34.50;;;;;;5051376;28;20442;-59
2023/03/17 11:07:39;;;;;;;3.45;1.10;;;21.50;34.60;;;;;;5066318;28;20452;-52
2023/03/17 11:10:17;;;;;;;1.85;1.02;;;21.50;34.60;;;;;;5062486;28;20052;-53
2023/03/17 11:12:44;;;;;;;2.22;1.15;;;21.50;34.60;;;;;;5053023;28;20449;-55
2023/03/17 11:15:15;;;;;;;2.65;1.23;;;21.50;34.60;;;;;;5052754;28;20045;-60
2023/03/17 11:17:44;;;;;;;2.20;1.05;;;21.50;34.50;;;;;;5050060;28;20114;-59
2023/03/17 11:20:29;;;;;;;3.22;1.00;;;21.60;34.40;;;;;;5052522;28;20388;-58
2023/03/17 11:23:31;;;;;;;1.98;1.20;;;21.60;34.30;;;;;;5053522;28;20035;-58
2023/03/17 11:26:24;;;;;;;1.35;1.02;;;21.60;34.10;;;;;;5053791;28;20044;-59
2023/03/17 11:29:26;;;;;;;2.28;1.00;;;21.60;34.70;;;;;;5055206;28;20033;-57
2023/03/17 11:32:14;;;;;;;3.33;1.17;;;21.60;34.10;;;;;;5053438;28;20025;-58
2023/03/17 11:34:51;;;;;;;3.05;1.40;;;21.70;34.10;;;;;;5054798;28;20404;-59
2023/03/17 11:37:33;;;;;;;3.60;1.23;;;21.70;34.10;;;;;;5053297;28;20033;-58
2023/03/17 11:40:31;;;;;;;2.80;0.98;;;21.70;34.10;;;;;;5058296;28;20113;-59
2023/03/17 11:43:25;;;;;;;2.53;1.10;;;21.70;34.10;;;;;;5068205;28;20028;-60
2023/03/17 11:45:56;;;;;;;2.75;1.20;;;21.70;34.10;;;;;;5052965;28;20478;-58
2023/03/17 11:48:34;;;;;;;1.88;0.95;;;21.70;34.10;;;;;;5050126;28;20028;-60
2023/03/17 11:51:19;;;;;;;3.17;1.00;;;21.70;34.00;;;;;;5047922;28;20020;-60
2023/03/17 11:53:48;;;;;;;3.17;1.00;;;21.70;34.00;;;;;;5046264;28;20044;-61
2023/03/17 11:56:19;;;;;;;2.25;1.20;;;21.70;33.90;;;;;;5052369;28;20021;-61
2023/03/17 11:58:51;;;;;;;3.00;1.27;;;21.70;33.80;;;;;;5049157;28;20029;-57
2023/03/17 12:01:26;;;;;;;2.70;1.05;;;21.70;33.80;;;;;;5054246;28;20025;-60
2023/03/17 12:04:09;;;;;;;2.90;1.10;;;21.70;33.90;;;;;;5028256;28;20025;-58
2023/03/17 12:06:47;;;;;;;2.47;1.27;;;21.80;34.00;;;;;;5039847;28;20025;-59
2023/03/17 12:09:26;;;;;;;2.58;1.00;;;21.70;33.90;;;;;;5063687;28;20375;-57
2023/03/17 12:11:54;;;;;;;1.33;0.90;;;21.70;33.80;;;;;;5044182;28;20025;-60
2023/03/17 12:14:31;;;;;;;2.28;1.20;;;21.80;33.80;;;;;;5067140;28;20116;-55
2023/03/17 12:17:12;;;;;;;2.72;1.00;;;21.80;33.80;;;;;;5069178;28;20071;-61
2023/03/17 12:19:41;;;;;;;5.05;1.30;;;21.80;34.00;;;;;;5034703;28;20158;-55
2023/03/17 12:22:20;;;;;;;2.63;1.15;;;21.80;34.20;;;;;;5043737;28;21511;-53
2023/03/17 12:25:08;;;;;;;2.85;1.20;;;21.80;34.50;;;;;;5049288;28;20029;-53
2023/03/17 12:28:00;;;;;;;2.10;1.15;;;21.80;34.60;;;;;;5045025;28;20025;-56
2023/03/17 12:30:44;;;;;;;3.08;1.00;;;21.80;34.70;;;;;;5058669;28;20033;-57
2023/03/17 12:33:13;;;;;;;2.15;1.20;;;21.80;34.70;;;;;;5046893;28;20040;-57
2023/03/17 12:35:39;;;;;;;2.83;1.45;;;21.80;34.70;;;;;;5040314;28;20029;-53
2023/03/17 12:38:11;;;;;;;2.30;1.13;;;21.80;34.60;;;;;;5041899;28;20357;-55
2023/03/17 12:41:01;;;;;;;2.35;1.20;;;21.90;34.60;;;;;;5045787;28;20583;-54
2023/03/17 12:43:33;;;;;;;1.05;0.77;;;21.90;34.60;;;;;;5046804;28;20040;-53
2023/03/17 12:46:17;;;;;;;3.70;1.20;;;21.90;34.70;;;;;;5045357;28;20029;-55
2023/03/17 12:48:49;;;;;;;2.58;1.08;;;21.90;34.70;;;;;;5048285;28;20349;-54
2023/03/17 12:51:33;;;;;;;2.10;1.13;;;21.90;34.70;;;;;;5044844;28;20483;-57
2023/03/17 12:53:59;;;;;;;4.25;1.17;;;21.90;34.70;;;;;;5046426;28;20045;-56
2023/03/17 12:56:25;;;;;;;2.17;0.80;;;21.90;34.80;;;;;;5048448;28;20020;-58
2023/03/17 12:58:53;;;;;;;2.45;1.20;;;21.90;34.90;;;;;;5054404;28;20437;-56